Terminal Aerodrome Forecast
Issued by NWS

Home | Current Version | Previous Version | Text Only | Print | Product List | Glossary On
Versions: 1 2 3 4 5 6 7 8 9 10 11 12 13 14 15 16 17 18 19 20 21 22 23 24 25
000
FTUS42 KRAH 240335 AAB
TAFRWI
TAF AMD
KRWI 240335Z 2404/2424 20010G18KT P6SM BKN015
      TEMPO 2404/2406 SCT015
     FM240600 20015G25KT P6SM SCT035 BKN070
     FM241100 22013G24KT P6SM SCT035 BKN080
     FM241500 24012KT P6SM SCT040 BKN150
     FM241900 25012KT P6SM VCSH BKN050 BKN140=

USA.gov is the U.S. government's official web portal to all federal, state and local government web resources and services.